createdAt,value
2019-02-06T00:02:13.730Z,37.37
2019-02-06T00:04:43.125Z,30.80
2019-02-06T00:07:19.128Z,36.07
2019-02-06T00:09:50.092Z,32.13
2019-02-06T00:12:27.807Z,33.95
2019-02-06T00:14:59.831Z,34.05
2019-02-06T00:17:33.616Z,34.67
2019-02-06T00:20:10.164Z,33.40
2019-02-06T00:22:43.844Z,42.17
2019-02-06T00:25:13.788Z,39.00
2019-02-06T00:27:44.691Z,35.77
2019-02-06T00:30:15.252Z,31.77
2019-02-06T00:32:48.314Z,40.40
2019-02-06T00:37:55.974Z,39.00
2019-02-06T00:40:25.116Z,40.40
2019-02-06T00:42:54.252Z,43.40
2019-02-06T00:45:23.877Z,35.30
2019-02-06T00:47:53.454Z,35.97
2019-02-06T00:50:22.857Z,36.60
2019-02-06T00:52:52.479Z,33.37
2019-02-06T00:55:24.813Z,34.75
2019-02-06T00:57:54.047Z,33.40
2019-02-06T01:00:23.795Z,31.80
2019-02-06T01:02:53.268Z,29.33
2019-02-06T01:05:22.813Z,30.43
2019-02-06T01:07:52.288Z,31.40
2019-02-06T01:10:22.749Z,32.20
2019-02-06T01:12:51.962Z,31.03
2019-02-06T01:15:26.023Z,34.00
2019-02-06T01:17:55.628Z,33.20
2019-02-06T01:20:24.811Z,29.02
2019-02-06T01:22:53.976Z,32.55
2019-02-06T01:25:23.479Z,36.38
2019-02-06T01:27:52.635Z,36.10
2019-02-06T01:30:24.194Z,34.50
2019-02-06T01:32:53.387Z,32.10
2019-02-06T01:35:22.843Z,31.90
2019-02-06T01:37:52.099Z,33.83
2019-02-06T01:40:25.727Z,32.70
2019-02-06T01:42:55.959Z,37.23
2019-02-06T01:45:25.257Z,36.60
2019-02-06T01:47:55.641Z,32.58
2019-02-06T01:50:25.430Z,34.40
2019-02-06T01:52:54.654Z,40.20
2019-02-06T01:55:23.823Z,31.75
2019-02-06T01:57:53.455Z,31.37
2019-02-06T02:00:24.040Z,31.95
2019-02-06T02:02:53.562Z,31.53
2019-02-06T02:05:27.105Z,32.23
2019-02-06T02:07:56.411Z,33.50
2019-02-06T02:10:25.581Z,33.73
2019-02-06T02:12:54.788Z,31.20
2019-02-06T02:15:23.922Z,34.27
2019-02-06T02:17:53.576Z,30.50
2019-02-06T02:20:23.452Z,29.60
2019-02-06T02:22:53.109Z,40.03
2019-02-06T02:25:22.251Z,30.40
2019-02-06T02:27:51.501Z,36.83
2019-02-06T02:30:26.526Z,38.87
2019-02-06T02:32:55.641Z,41.88
2019-02-06T02:35:25.130Z,33.38
2019-02-06T02:37:54.283Z,31.37
2019-02-06T02:40:23.447Z,30.88
2019-02-06T02:42:53.105Z,39.60
2019-02-06T02:45:22.975Z,35.83
2019-02-06T02:47:52.619Z,35.40
2019-02-06T02:50:21.832Z,36.03
2019-02-06T02:52:51.529Z,38.05
2019-02-06T02:55:23.557Z,35.37
2019-02-06T02:57:52.902Z,39.47
2019-02-06T03:00:26.684Z,35.17
2019-02-06T03:03:03.040Z,32.83
2019-02-06T03:05:34.770Z,38.83
2019-02-06T03:08:04.109Z,40.92
2019-02-06T03:10:33.959Z,32.40
2019-02-06T03:13:03.610Z,41.33
2019-02-06T03:15:32.762Z,39.03
2019-02-06T03:18:01.979Z,35.90
2019-02-06T03:20:31.205Z,40.97
2019-02-06T03:23:00.426Z,41.93
2019-02-06T03:25:29.634Z,41.00
2019-02-06T03:27:58.828Z,40.08
2019-02-06T03:30:28.057Z,45.43
2019-02-06T03:32:58.068Z,37.70
2019-02-06T03:35:27.267Z,38.00
2019-02-06T03:38:02.001Z,39.40
2019-02-06T03:40:32.659Z,36.27
2019-02-06T03:43:02.339Z,35.65
2019-02-06T03:45:31.866Z,29.93
2019-02-06T03:48:01.440Z,41.90
2019-02-06T03:50:30.756Z,37.27
2019-02-06T03:52:59.909Z,38.25
2019-02-06T03:55:29.198Z,34.03
2019-02-06T03:57:59.149Z,39.10
2019-02-06T04:00:28.751Z,37.27
2019-02-06T04:03:01.138Z,37.07
2019-02-06T04:05:30.346Z,32.30
2019-02-06T04:07:59.456Z,36.70
2019-02-06T04:10:28.922Z,41.93
2019-02-06T04:12:58.773Z,45.97
2019-02-06T04:15:28.196Z,52.13
2019-02-06T04:17:57.391Z,54.58
2019-02-06T04:20:26.576Z,42.17
2019-02-06T04:22:55.798Z,39.03
2019-02-06T04:25:29.291Z,45.60
2019-02-06T04:27:58.450Z,41.57
2019-02-06T04:30:28.012Z,39.63
2019-02-06T04:32:57.271Z,42.13
2019-02-06T04:35:26.409Z,41.57
2019-02-06T04:37:55.562Z,42.10
2019-02-06T04:40:24.982Z,38.37
2019-02-06T04:42:54.424Z,33.57
2019-02-06T04:45:23.821Z,34.30
2019-02-06T04:47:52.974Z,44.35
2019-02-06T04:50:22.483Z,40.48
2019-02-06T04:52:51.648Z,44.87
2019-02-06T04:55:20.914Z,39.73
2019-02-06T04:57:50.472Z,36.93
2019-02-06T05:00:21.791Z,38.97
2019-02-06T05:02:50.963Z,38.10
2019-02-06T05:05:20.156Z,33.30
2019-02-06T05:07:49.627Z,38.63
2019-02-06T05:10:18.818Z,38.55
2019-02-06T05:12:48.362Z,39.00
2019-02-06T05:15:17.877Z,44.35
2019-02-06T05:18:03.981Z,39.80
2019-02-06T05:20:41.689Z,36.83
2019-02-06T05:23:11.324Z,36.70
2019-02-06T05:25:40.468Z,36.75
2019-02-06T05:28:09.927Z,39.30
2019-02-06T05:30:39.350Z,43.68
2019-02-06T05:33:08.769Z,44.53
2019-02-06T05:35:37.986Z,37.95
2019-02-06T05:38:07.588Z,36.83
2019-02-06T05:40:36.843Z,41.23
2019-02-06T05:43:06.418Z,36.55
2019-02-06T05:45:35.678Z,38.67
2019-02-06T05:48:04.844Z,42.62
2019-02-06T05:50:34.119Z,46.33
2019-02-06T05:53:05.925Z,50.12
2019-02-06T05:55:38.815Z,44.43
2019-02-06T05:58:08.039Z,39.23
2019-02-06T06:00:42.718Z,43.73
2019-02-06T06:03:11.855Z,41.50
2019-02-06T06:05:41.506Z,38.63
2019-02-06T06:08:11.325Z,38.10
2019-02-06T06:10:40.955Z,48.20
2019-02-06T06:13:12.607Z,44.07
2019-02-06T06:15:41.762Z,41.93
2019-02-06T06:18:15.731Z,42.03
2019-02-06T06:20:45.770Z,37.57
2019-02-06T06:23:15.102Z,46.27
2019-02-06T06:25:44.821Z,40.43
2019-02-06T06:28:25.163Z,44.30
2019-02-06T06:30:58.930Z,40.80
2019-02-06T06:33:29.775Z,41.53
2019-02-06T06:36:01.527Z,42.73
2019-02-06T06:38:31.817Z,40.73
2019-02-06T06:41:04.368Z,44.20
2019-02-06T06:43:39.740Z,41.65
2019-02-06T06:46:08.936Z,39.63
2019-02-06T06:48:38.095Z,47.05
2019-02-06T06:51:07.346Z,39.73
2019-02-06T06:53:36.582Z,39.17
2019-02-06T06:56:06.146Z,42.08
2019-02-06T06:58:35.307Z,39.70
2019-02-06T07:01:04.565Z,42.03
2019-02-06T07:03:34.107Z,39.27
2019-02-06T07:06:03.342Z,42.73
2019-02-06T07:08:32.530Z,42.50
2019-02-06T07:11:02.153Z,39.87
2019-02-06T07:13:31.281Z,45.83
2019-02-06T07:16:00.762Z,50.93
2019-02-06T07:18:30.478Z,43.80
2019-02-06T07:21:01.635Z,44.37
2019-02-06T07:23:30.963Z,39.38
2019-02-06T07:26:00.184Z,42.98
2019-02-06T07:28:29.850Z,39.87
2019-02-06T07:30:59.435Z,41.80
2019-02-06T07:33:28.571Z,43.23
2019-02-06T07:35:58.083Z,40.50
2019-02-06T07:38:27.690Z,43.65
2019-02-06T07:40:57.472Z,48.00
2019-02-06T07:43:26.647Z,40.23
2019-02-06T07:45:55.780Z,45.47
2019-02-06T07:48:25.346Z,42.37
2019-02-06T07:50:54.800Z,40.77
2019-02-06T07:53:24.252Z,39.30
2019-02-06T07:55:53.375Z,41.93
2019-02-06T07:58:23.342Z,44.98
2019-02-06T08:00:52.526Z,47.17
2019-02-06T08:03:21.893Z,39.57
2019-02-06T08:05:51.164Z,41.70
2019-02-06T08:08:20.387Z,43.80
2019-02-06T08:10:49.995Z,45.90
2019-02-06T08:13:19.580Z,37.00
2019-02-06T08:15:48.759Z,42.73
2019-02-06T08:18:18.330Z,42.03
2019-02-06T08:20:47.568Z,44.87
2019-02-06T08:23:17.209Z,42.33
2019-02-06T08:25:46.466Z,44.53
2019-02-06T08:28:15.623Z,45.70
2019-02-06T08:30:44.835Z,40.90
2019-02-06T08:33:14.436Z,44.73
2019-02-06T08:35:43.641Z,38.95
2019-02-06T08:38:12.872Z,43.90
2019-02-06T08:40:42.108Z,41.28
2019-02-06T08:43:12.672Z,38.33
2019-02-06T08:45:42.299Z,45.33
2019-02-06T08:48:12.034Z,45.90
2019-02-06T08:50:41.619Z,43.87
2019-02-06T08:53:11.150Z,39.43
2019-02-06T08:55:40.737Z,46.73
2019-02-06T08:58:10.209Z,44.83
2019-02-06T09:00:40.428Z,43.53
2019-02-06T09:03:10.819Z,52.43
2019-02-06T09:05:40.059Z,52.53
2019-02-06T09:08:09.636Z,42.67
2019-02-06T09:10:41.194Z,43.53
2019-02-06T09:13:10.692Z,44.33
2019-02-06T09:15:39.830Z,43.00
2019-02-06T09:18:09.406Z,39.90
2019-02-06T09:20:39.243Z,40.60
2019-02-06T09:23:08.419Z,47.23
2019-02-06T09:25:37.553Z,42.73
2019-02-06T09:28:06.695Z,48.03
2019-02-06T09:30:35.867Z,42.83
2019-02-06T09:33:05.700Z,46.90
2019-02-06T09:35:34.926Z,44.70
2019-02-06T09:38:04.152Z,45.40
2019-02-06T09:40:33.371Z,44.13
2019-02-06T09:43:02.671Z,49.03
2019-02-06T09:45:32.205Z,48.90
2019-02-06T09:48:01.580Z,49.90
2019-02-06T09:50:36.579Z,44.17
2019-02-06T09:53:05.808Z,42.90
2019-02-06T09:55:35.583Z,50.40
2019-02-06T09:58:05.808Z,42.27
2019-02-06T10:00:37.164Z,40.57
2019-02-06T10:03:08.063Z,45.20
2019-02-06T10:05:37.887Z,49.48
2019-02-06T10:08:07.148Z,42.90
2019-02-06T10:10:36.888Z,42.03
2019-02-06T10:13:06.695Z,44.80
2019-02-06T10:15:37.596Z,50.08
2019-02-06T10:18:07.397Z,50.10
2019-02-06T10:20:39.640Z,50.57
2019-02-06T10:23:09.008Z,49.23
2019-02-06T10:25:38.449Z,47.20
2019-02-06T10:28:07.722Z,45.75
2019-02-06T10:30:48.499Z,50.33
2019-02-06T10:33:19.045Z,40.90
2019-02-06T10:35:51.816Z,44.33
2019-02-06T10:38:19.829Z,50.70
2019-02-06T10:40:49.132Z,47.30
2019-02-06T10:43:18.752Z,48.60
2019-02-06T10:45:47.985Z,46.77
2019-02-06T10:48:17.346Z,41.90
2019-02-06T10:50:48.904Z,43.93
2019-02-06T10:53:18.412Z,43.80
2019-02-06T10:55:47.895Z,44.87
2019-02-06T10:58:17.818Z,42.50
2019-02-06T11:00:58.934Z,44.07
2019-02-06T11:03:28.290Z,60.03
2019-02-06T11:05:58.178Z,44.35
2019-02-06T11:08:27.506Z,50.33
2019-02-06T11:10:57.596Z,42.78
2019-02-06T11:13:26.890Z,48.00
2019-02-06T11:15:56.534Z,38.28
2019-02-06T11:18:32.967Z,47.70
2019-02-06T11:21:02.722Z,42.47
2019-02-06T11:23:37.695Z,35.30
2019-02-06T11:26:07.027Z,36.63
2019-02-06T11:28:36.281Z,38.73
2019-02-06T11:31:11.665Z,36.60
2019-02-06T11:33:46.214Z,37.37
2019-02-06T11:36:23.947Z,35.60
2019-02-06T11:38:46.647Z,34.90
2019-02-06T11:41:16.144Z,33.37
2019-02-06T11:43:45.501Z,35.70
2019-02-06T11:46:14.724Z,36.03
2019-02-06T11:48:44.128Z,39.53
2019-02-06T11:51:13.882Z,37.73
2019-02-06T11:53:43.529Z,36.25
2019-02-06T11:56:12.983Z,34.50
2019-02-06T11:58:42.378Z,35.73
2019-02-06T12:01:28.542Z,38.48
2019-02-06T12:03:57.858Z,33.50
2019-02-06T12:06:27.463Z,30.50
2019-02-06T12:08:56.706Z,33.43
2019-02-06T12:11:26.792Z,31.30
2019-02-06T12:13:56.075Z,36.77
2019-02-06T12:16:26.896Z,35.68
2019-02-06T12:18:59.000Z,33.17
2019-02-06T12:21:57.312Z,33.18
2019-02-06T12:24:26.847Z,33.27
2019-02-06T12:27:01.932Z,35.20
2019-02-06T12:29:32.672Z,31.93
2019-02-06T12:32:05.167Z,32.73
2019-02-06T12:34:34.420Z,34.23
2019-02-06T12:37:03.868Z,32.77
2019-02-06T12:39:33.146Z,30.32
2019-02-06T12:42:02.391Z,33.07
2019-02-06T12:44:31.652Z,29.47
2019-02-06T12:47:01.045Z,41.57
2019-02-06T12:49:32.679Z,35.63
2019-02-06T12:52:01.945Z,32.20
2019-02-06T12:54:31.259Z,32.60
2019-02-06T12:57:00.897Z,29.90
2019-02-06T12:59:32.576Z,32.13
2019-02-06T13:02:02.171Z,33.93
2019-02-06T13:04:31.417Z,32.60
2019-02-06T13:07:00.701Z,36.30
2019-02-06T13:09:29.851Z,36.33
2019-02-06T13:12:01.878Z,37.40
2019-02-06T13:14:31.372Z,34.30
2019-02-06T13:17:11.268Z,32.67
2019-02-06T13:20:37.544Z,34.10
2019-02-06T13:23:11.670Z,37.57
2019-02-06T13:25:49.582Z,37.53
2019-02-06T13:28:36.053Z,39.93
2019-02-06T13:32:00.030Z,35.10
2019-02-06T13:34:29.418Z,34.60
2019-02-06T13:39:04.747Z,37.63
2019-02-06T13:40:27.492Z,43.43
2019-02-06T13:50:29.707Z,45.33
2019-02-06T13:50:41.071Z,38.33
2019-02-06T13:53:34.578Z,38.20
2019-02-06T13:57:33.349Z,36.98
2019-02-06T14:00:57.959Z,39.10
2019-02-06T14:04:18.000Z,37.65
2019-02-06T14:07:51.024Z,36.57
2019-02-06T14:11:27.487Z,40.92
2019-02-06T14:14:13.920Z,35.70
2019-02-06T14:17:11.316Z,41.77
2019-02-06T14:21:10.499Z,37.80
2019-02-06T14:23:57.112Z,37.00
2019-02-06T14:26:57.977Z,37.80
2019-02-06T14:30:36.410Z,36.65
2019-02-06T14:34:03.127Z,37.00
2019-02-06T14:37:34.063Z,32.60
2019-02-06T14:40:31.862Z,39.17
2019-02-06T14:43:41.009Z,37.13
2019-02-06T14:46:27.726Z,37.28
2019-02-06T14:49:15.113Z,32.97
2019-02-06T14:52:18.057Z,31.77
2019-02-06T14:55:31.226Z,35.77
2019-02-06T14:58:51.625Z,37.30
2019-02-06T15:02:02.281Z,33.37
2019-02-06T15:05:12.634Z,35.77
2019-02-06T15:08:20.606Z,40.03
2019-02-06T15:11:47.650Z,38.17
2019-02-06T15:14:29.928Z,37.30
2019-02-06T15:17:33.393Z,38.60
2019-02-06T15:21:14.987Z,37.63
2019-02-06T15:24:30.630Z,37.73
2019-02-06T15:39:05.796Z,40.50
2019-02-06T15:42:39.876Z,38.30
2019-02-06T15:46:03.562Z,45.92
2019-02-06T15:48:47.600Z,40.43
2019-02-06T15:51:45.043Z,37.43
2019-02-06T15:54:38.983Z,44.47
2019-02-06T15:57:59.216Z,42.78
2019-02-06T16:01:07.506Z,42.97
2019-02-06T16:04:17.461Z,50.73
2019-02-06T16:07:14.216Z,42.30
2019-02-06T16:10:01.039Z,47.30
2019-02-06T16:13:11.474Z,53.15
2019-02-06T16:16:24.093Z,47.20
2019-02-06T16:19:25.816Z,51.53
2019-02-06T16:22:27.296Z,57.07
2019-02-06T16:25:51.231Z,49.13
2019-02-06T16:29:09.973Z,49.50
2019-02-06T16:32:10.708Z,49.13
2019-02-06T16:35:34.644Z,51.17
2019-02-06T16:38:43.410Z,49.90
2019-02-06T16:41:53.083Z,51.80
2019-02-06T16:48:30.070Z,54.30
2019-02-06T16:51:41.224Z,51.23
2019-02-06T16:54:42.430Z,49.63
2019-02-06T16:57:40.014Z,50.57
2019-02-06T17:01:06.024Z,51.00
2019-02-06T17:04:19.249Z,56.05
2019-02-06T17:07:01.772Z,52.13
2019-02-06T17:09:52.746Z,52.10
2019-02-06T17:13:09.379Z,59.33
2019-02-06T17:16:31.952Z,58.28
2019-02-06T17:19:37.948Z,51.67
2019-02-06T17:22:35.272Z,66.40
2019-02-06T17:25:41.408Z,55.87
2019-02-06T17:28:59.148Z,54.67
2019-02-06T17:32:11.759Z,60.80
2019-02-06T17:35:16.146Z,69.17
2019-02-06T17:38:29.241Z,54.77
2019-02-06T17:41:19.818Z,58.27
2019-02-06T17:44:29.610Z,59.13
2019-02-06T17:47:29.980Z,56.07
2019-02-06T17:50:30.616Z,50.83
2019-02-06T17:53:42.135Z,47.77
2019-02-06T17:56:11.503Z,46.50
2019-02-06T17:58:43.688Z,42.63
2019-02-06T18:01:49.707Z,40.63
2019-02-06T18:04:31.469Z,40.90
2019-02-06T18:07:01.048Z,40.67
2019-02-06T18:09:30.364Z,42.25
2019-02-06T18:11:59.691Z,43.10
2019-02-06T18:14:29.042Z,41.00
2019-02-06T18:16:58.411Z,37.30
2019-02-06T18:19:27.740Z,41.93
2019-02-06T18:21:57.225Z,47.87
2019-02-06T18:24:27.614Z,44.53
2019-02-06T18:26:58.172Z,46.48
2019-02-06T18:29:27.520Z,46.40
2019-02-06T18:31:56.990Z,48.57
2019-02-06T18:34:26.325Z,43.15
2019-02-06T18:36:56.445Z,44.70
2019-02-06T18:39:25.865Z,35.60
2019-02-06T18:41:55.747Z,44.27
2019-02-06T18:44:31.963Z,43.03
2019-02-06T18:47:02.028Z,42.77
2019-02-06T18:49:31.337Z,39.57
2019-02-06T18:52:00.824Z,39.07
2019-02-06T18:54:38.170Z,54.30
2019-02-06T18:57:07.632Z,42.40
2019-02-06T18:59:37.568Z,53.33
2019-02-06T19:02:06.952Z,39.07
2019-02-06T19:04:36.836Z,45.60
2019-02-06T19:07:25.507Z,43.80
2019-02-06T19:09:55.089Z,44.97
2019-02-06T19:12:24.384Z,45.38
2019-02-06T19:14:53.975Z,38.58
2019-02-06T19:17:23.829Z,39.73
2019-02-06T19:19:55.619Z,43.15
2019-02-06T19:22:26.288Z,48.08
2019-02-06T19:24:56.215Z,44.77
2019-02-06T19:27:25.538Z,62.53
2019-02-06T19:29:55.371Z,50.28
2019-02-06T19:32:24.697Z,47.97
2019-02-06T19:34:54.020Z,51.33
2019-02-06T19:37:23.373Z,47.53
2019-02-06T19:39:53.065Z,47.50
2019-02-06T19:42:23.260Z,53.23
2019-02-06T19:44:52.575Z,44.10
2019-02-06T19:47:22.300Z,51.20
2019-02-06T19:49:51.564Z,40.30
2019-02-06T19:52:21.317Z,47.53
2019-02-06T19:54:51.072Z,50.97
2019-02-06T19:57:20.911Z,50.85
2019-02-06T19:59:50.583Z,50.00
2019-02-06T20:02:20.585Z,44.70
2019-02-06T20:05:01.094Z,43.40
2019-02-06T20:07:30.404Z,48.23
2019-02-06T20:09:59.831Z,54.23
2019-02-06T20:12:29.188Z,52.00
2019-02-06T20:14:58.975Z,46.93
2019-02-06T20:17:28.490Z,49.45
2019-02-06T20:19:57.973Z,42.43
2019-02-06T20:22:27.378Z,37.90
2019-02-06T20:24:56.704Z,44.00
2019-02-06T20:27:26.045Z,42.63
2019-02-06T20:29:55.678Z,42.48
2019-02-06T20:32:25.029Z,47.50
2019-02-06T20:34:56.777Z,42.47
2019-02-06T20:37:26.051Z,52.20
2019-02-06T20:39:55.978Z,47.30
2019-02-06T20:42:25.466Z,57.75
2019-02-06T20:44:55.098Z,44.23
2019-02-06T20:47:24.505Z,47.37
2019-02-06T20:49:53.783Z,52.80
2019-02-06T20:52:23.744Z,51.33
2019-02-06T20:54:54.392Z,53.73
2019-02-06T20:57:25.982Z,60.27
2019-02-06T20:59:55.886Z,50.17
2019-02-06T21:02:25.263Z,46.73
2019-02-06T21:04:54.420Z,50.70
2019-02-06T21:07:23.652Z,51.70
2019-02-06T21:09:52.912Z,54.47
2019-02-06T21:12:22.569Z,48.87
2019-02-06T21:14:51.855Z,51.60
2019-02-06T21:17:23.848Z,47.55
2019-02-06T21:19:53.197Z,48.50
2019-02-06T21:22:22.627Z,55.97
2019-02-06T21:24:51.933Z,48.13
2019-02-06T21:27:21.349Z,46.73
2019-02-06T21:29:50.525Z,51.60
2019-02-06T21:32:21.162Z,49.00
2019-02-06T21:34:51.442Z,48.60
2019-02-06T21:37:20.788Z,50.57
2019-02-06T21:39:50.712Z,57.73
2019-02-06T21:42:20.238Z,53.47
2019-02-06T21:44:49.938Z,49.93
2019-02-06T21:47:20.903Z,47.90
2019-02-06T21:49:50.422Z,52.23
2019-02-06T21:52:19.690Z,49.40
2019-02-06T21:54:51.018Z,51.68
2019-02-06T21:57:20.767Z,50.07
2019-02-06T21:59:51.124Z,49.17
2019-02-06T22:02:20.303Z,51.13
2019-02-06T22:04:51.058Z,47.10
2019-02-06T22:07:20.602Z,53.50
2019-02-06T22:09:49.864Z,49.37
2019-02-06T22:12:19.693Z,48.17
2019-02-06T22:14:53.649Z,49.23
2019-02-06T22:17:20.077Z,46.50
2019-02-06T22:19:49.366Z,52.93
2019-02-06T22:22:18.708Z,46.57
2019-02-06T22:24:47.944Z,54.83
2019-02-06T22:27:17.531Z,48.30
2019-02-06T22:29:46.939Z,51.90
2019-02-06T22:32:16.500Z,55.83
2019-02-06T22:34:58.819Z,61.80
2019-02-06T22:37:28.305Z,61.10
2019-02-06T22:39:58.003Z,58.00
2019-02-06T22:42:27.993Z,53.87
2019-02-06T22:44:57.280Z,45.20
2019-02-06T22:47:26.577Z,55.80
2019-02-06T22:49:57.563Z,47.73
2019-02-06T22:52:26.962Z,52.10
2019-02-06T22:54:56.660Z,57.33
2019-02-06T22:57:25.940Z,48.03
2019-02-06T22:59:55.308Z,60.08
2019-02-06T23:02:24.575Z,58.43
2019-02-06T23:04:53.854Z,55.80
2019-02-06T23:07:23.165Z,54.07
2019-02-06T23:09:52.812Z,48.10
2019-02-06T23:12:22.350Z,52.60
2019-02-06T23:14:51.563Z,49.47
2019-02-06T23:17:20.831Z,53.70
2019-02-06T23:19:50.308Z,52.73
2019-02-06T23:22:19.606Z,51.50
2019-02-06T23:24:49.315Z,48.23
2019-02-06T23:27:18.568Z,55.00
2019-02-06T23:29:48.123Z,49.23
2019-02-06T23:32:17.692Z,52.77
2019-02-06T23:34:46.923Z,60.40
2019-02-06T23:37:16.493Z,46.73
2019-02-06T23:39:46.021Z,51.65
2019-02-06T23:42:15.247Z,54.37
2019-02-06T23:44:44.770Z,63.10
2019-02-06T23:47:13.999Z,51.00
2019-02-06T23:49:43.183Z,59.13
2019-02-06T23:52:12.457Z,47.87
2019-02-06T23:54:41.724Z,56.67
2019-02-06T23:57:11.004Z,53.77
2019-02-06T23:59:40.381Z,57.75
